createdAt,value
2022-11-26T00:00:50.030Z,42.13
2022-11-26T00:03:17.893Z,42.11
2022-11-26T00:05:46.953Z,42.06
2022-11-26T00:08:19.468Z,42.26
2022-11-26T00:10:49.740Z,42.11
2022-11-26T00:13:21.093Z,41.98
2022-11-26T00:15:49.043Z,41.97
2022-11-26T00:18:16.829Z,42.05
2022-11-26T00:20:44.944Z,41.72
2022-11-26T00:23:19.652Z,41.81
2022-11-26T00:25:49.878Z,41.71
2022-11-26T00:28:37.135Z,41.66
2022-11-26T00:31:07.238Z,41.89
2022-11-26T00:33:34.378Z,41.98
2022-11-26T00:36:07.072Z,42.14
2022-11-26T00:38:34.828Z,42.16
2022-11-26T00:41:01.935Z,42.12
2022-11-26T00:43:29.050Z,42.13
2022-11-26T00:45:57.548Z,42.07
2022-11-26T00:48:24.704Z,42.13
2022-11-26T00:50:51.998Z,42.06
2022-11-26T00:53:22.462Z,42.14
2022-11-26T00:55:50.185Z,42.20
2022-11-26T00:58:24.267Z,42.23
2022-11-26T01:00:52.268Z,42.28
2022-11-26T01:03:20.902Z,42.01
2022-11-26T01:05:50.386Z,42.11
2022-11-26T01:08:27.462Z,41.95
2022-11-26T01:10:54.636Z,42.05
2022-11-26T01:13:21.795Z,42.18
2022-11-26T01:15:48.993Z,42.06
2022-11-26T01:18:18.931Z,42.09
2022-11-26T01:20:48.224Z,42.19
2022-11-26T01:23:16.946Z,42.07
2022-11-26T01:25:45.266Z,42.36
2022-11-26T01:28:15.100Z,42.19
2022-11-26T01:30:42.701Z,42.25
2022-11-26T01:33:09.854Z,42.22
2022-11-26T01:35:37.622Z,42.15
2022-11-26T01:38:06.187Z,42.29
2022-11-26T01:40:45.634Z,42.32
2022-11-26T01:43:20.426Z,42.35
2022-11-26T01:45:47.642Z,42.42
2022-11-26T01:48:27.908Z,42.43
2022-11-26T01:50:58.812Z,42.34
2022-11-26T01:53:49.277Z,42.31
2022-11-26T01:56:20.787Z,42.35
2022-11-26T01:58:51.058Z,42.25
2022-11-26T02:01:19.139Z,42.09
2022-11-26T02:03:55.337Z,42.47
2022-11-26T02:06:27.864Z,42.25
2022-11-26T02:08:58.034Z,41.94
2022-11-26T02:11:25.514Z,42.19
2022-11-26T02:13:55.741Z,42.27
2022-11-26T02:16:45.911Z,42.36
2022-11-26T02:19:45.373Z,42.30
2022-11-26T02:22:29.170Z,42.20
2022-11-26T02:25:05.227Z,42.44
2022-11-26T02:28:03.247Z,42.33
2022-11-26T02:30:36.258Z,42.45
2022-11-26T02:33:09.258Z,42.35
2022-11-26T02:35:42.615Z,42.28
2022-11-26T02:38:12.548Z,42.41
2022-11-26T02:40:39.646Z,42.50
2022-11-26T02:43:06.765Z,42.58
2022-11-26T02:45:39.024Z,42.27
2022-11-26T02:48:10.004Z,42.31
2022-11-26T02:50:47.636Z,42.36
2022-11-26T02:53:17.540Z,42.30
2022-11-26T02:55:48.620Z,42.10
2022-11-26T02:58:16.930Z,42.16
2022-11-26T03:00:48.276Z,41.98
2022-11-26T03:03:20.058Z,42.16
2022-11-26T03:05:47.385Z,42.29
2022-11-26T03:08:15.325Z,42.29
2022-11-26T03:10:42.440Z,42.28
2022-11-26T03:13:09.649Z,42.43
2022-11-26T03:15:36.806Z,42.38
2022-11-26T03:18:05.407Z,42.45
2022-11-26T03:20:32.540Z,42.35
2022-11-26T03:22:59.703Z,42.28
2022-11-26T03:25:26.821Z,42.39
2022-11-26T03:27:53.971Z,42.34
2022-11-26T03:30:21.443Z,42.61
2022-11-26T03:32:48.549Z,42.46
2022-11-26T03:35:17.180Z,42.32
2022-11-26T03:37:44.733Z,42.23
2022-11-26T03:40:12.358Z,42.36
2022-11-26T03:42:39.495Z,42.41
2022-11-26T03:45:07.366Z,42.27
2022-11-26T03:47:34.500Z,42.19
2022-11-26T03:50:01.630Z,42.22
2022-11-26T03:52:30.153Z,42.24
2022-11-26T03:54:57.284Z,42.34
2022-11-26T03:57:24.388Z,42.22
2022-11-26T03:59:51.766Z,42.35
2022-11-26T04:02:18.959Z,42.46
2022-11-26T04:04:46.071Z,42.42
2022-11-26T04:07:13.323Z,42.44
2022-11-26T04:09:41.815Z,42.58
2022-11-26T04:12:08.934Z,42.38
2022-11-26T04:14:36.522Z,42.60
2022-11-26T04:17:03.886Z,42.53
2022-11-26T04:19:31.054Z,42.45
2022-11-26T04:21:58.189Z,42.54
2022-11-26T04:24:25.408Z,42.55
2022-11-26T04:26:53.891Z,42.51
2022-11-26T04:29:21.183Z,42.39
2022-11-26T04:31:48.354Z,42.27
2022-11-26T04:34:15.533Z,42.17
2022-11-26T04:36:42.682Z,42.16
2022-11-26T04:39:09.798Z,42.08
2022-11-26T04:41:36.934Z,42.14
2022-11-26T04:44:05.530Z,42.31
2022-11-26T04:46:32.695Z,42.24
2022-11-26T04:49:00.655Z,42.41
2022-11-26T04:51:27.828Z,42.38
2022-11-26T04:53:55.938Z,42.46
2022-11-26T04:56:23.441Z,42.42
2022-11-26T04:58:51.062Z,42.48
2022-11-26T05:01:19.612Z,42.47
2022-11-26T05:03:46.730Z,42.53
2022-11-26T05:06:13.861Z,42.47
2022-11-26T05:08:40.952Z,42.51
2022-11-26T05:11:08.088Z,42.52
2022-11-26T05:13:35.217Z,42.53
2022-11-26T05:16:02.411Z,42.66
2022-11-26T05:18:31.063Z,42.84
2022-11-26T05:20:58.356Z,42.54
2022-11-26T05:23:25.468Z,42.60
2022-11-26T05:25:52.823Z,42.62
2022-11-26T05:28:19.951Z,42.69
2022-11-26T05:30:47.075Z,42.53
2022-11-26T05:33:14.262Z,42.60
2022-11-26T05:35:42.744Z,42.66
2022-11-26T05:38:09.974Z,42.66
2022-11-26T05:40:37.071Z,42.49
2022-11-26T05:43:04.189Z,42.66
2022-11-26T05:45:31.350Z,42.63
2022-11-26T05:47:58.479Z,42.61
2022-11-26T05:50:25.735Z,42.54
2022-11-26T05:52:54.208Z,42.82
2022-11-26T05:55:21.355Z,42.70
2022-11-26T05:57:48.502Z,42.52
2022-11-26T06:00:16.704Z,42.76
2022-11-26T06:02:44.105Z,42.70
2022-11-26T06:05:12.012Z,42.96
2022-11-26T06:07:43.330Z,42.74
2022-11-26T06:10:14.141Z,42.70
2022-11-26T06:12:41.255Z,42.46
2022-11-26T06:15:09.444Z,42.68
2022-11-26T06:17:36.732Z,42.42
2022-11-26T06:20:04.785Z,42.43
2022-11-26T06:22:36.474Z,42.26
2022-11-26T06:25:03.974Z,42.30
2022-11-26T06:27:34.343Z,42.07
2022-11-26T06:30:01.637Z,41.83
2022-11-26T06:32:29.344Z,41.58
2022-11-26T06:34:56.474Z,41.39
2022-11-26T06:37:24.076Z,41.37
2022-11-26T06:39:51.599Z,41.54
2022-11-26T06:42:18.959Z,41.65
2022-11-26T06:44:47.470Z,42.40
2022-11-26T06:47:14.607Z,42.56
2022-11-26T06:49:42.188Z,44.90
2022-11-26T06:52:09.319Z,46.67
2022-11-26T06:54:36.907Z,47.19
2022-11-26T06:57:04.372Z,43.25
2022-11-26T06:59:31.706Z,41.31
2022-11-26T07:02:00.285Z,41.66
2022-11-26T07:04:27.573Z,41.87
2022-11-26T07:06:54.678Z,42.02
2022-11-26T07:09:21.799Z,42.40
2022-11-26T07:11:48.919Z,42.57
2022-11-26T07:14:16.053Z,42.79
2022-11-26T07:16:43.195Z,42.86
2022-11-26T07:19:13.564Z,42.96
2022-11-26T07:21:41.263Z,43.01
2022-11-26T07:24:08.482Z,42.94
2022-11-26T07:26:35.743Z,43.22
2022-11-26T07:29:03.114Z,43.18
2022-11-26T07:31:30.260Z,43.25
2022-11-26T07:33:57.781Z,43.21
2022-11-26T07:36:27.925Z,43.20
2022-11-26T07:38:55.917Z,43.45
2022-11-26T07:41:23.925Z,43.31
2022-11-26T07:43:51.644Z,43.51
2022-11-26T07:46:21.301Z,43.22
2022-11-26T07:48:48.943Z,43.49
2022-11-26T07:51:18.786Z,43.56
2022-11-26T07:53:48.064Z,43.54
2022-11-26T07:56:15.323Z,43.52
2022-11-26T07:58:42.520Z,43.61
2022-11-26T08:01:11.320Z,43.64
2022-11-26T08:03:38.714Z,43.67
2022-11-26T08:06:07.618Z,43.79
2022-11-26T08:08:34.967Z,43.79
2022-11-26T08:11:04.492Z,43.76
2022-11-26T08:13:31.627Z,43.88
2022-11-26T08:15:58.784Z,43.98
2022-11-26T08:18:25.899Z,43.97
2022-11-26T08:20:56.256Z,43.90
2022-11-26T08:23:23.827Z,44.11
2022-11-26T08:26:20.403Z,43.84
2022-11-26T08:28:41.671Z,43.32
2022-11-26T08:31:10.680Z,43.05
2022-11-26T08:33:38.189Z,42.84
2022-11-26T08:36:08.372Z,42.82
2022-11-26T08:38:36.331Z,42.55
2022-11-26T08:41:05.802Z,42.80
2022-11-26T08:44:04.620Z,42.48
2022-11-26T08:46:23.690Z,42.46
2022-11-26T08:48:50.923Z,42.58
2022-11-26T08:51:18.040Z,42.38
2022-11-26T08:53:45.137Z,42.28
2022-11-26T08:56:12.798Z,42.11
2022-11-26T08:58:41.580Z,42.05
2022-11-26T09:01:09.577Z,42.17
2022-11-26T09:03:38.593Z,42.00
2022-11-26T09:06:07.278Z,41.97
2022-11-26T09:08:34.838Z,41.98
2022-11-26T09:11:01.962Z,41.97
2022-11-26T09:13:29.136Z,42.14
2022-11-26T09:15:56.277Z,42.07
2022-11-26T09:18:23.423Z,42.10
2022-11-26T09:20:57.001Z,42.09
2022-11-26T09:23:24.467Z,42.10
2022-11-26T09:25:51.582Z,42.05
2022-11-26T09:28:18.686Z,42.20
2022-11-26T09:30:46.026Z,42.13
2022-11-26T09:33:13.143Z,42.45
2022-11-26T09:35:40.256Z,42.34
2022-11-26T09:38:08.776Z,42.40
2022-11-26T09:40:45.509Z,45.37
2022-11-26T09:43:25.061Z,43.83
2022-11-26T09:45:57.900Z,44.26
2022-11-26T09:48:26.330Z,43.84
2022-11-26T09:51:00.101Z,43.47
2022-11-26T09:53:34.389Z,43.51
2022-11-26T09:56:01.923Z,43.56
2022-11-26T09:58:33.979Z,43.21
2022-11-26T10:01:05.270Z,42.97
2022-11-26T10:03:35.371Z,43.20
2022-11-26T10:06:08.269Z,43.02
2022-11-26T10:09:01.935Z,42.88
2022-11-26T10:11:36.458Z,42.81
2022-11-26T10:14:18.515Z,43.03
2022-11-26T10:16:58.802Z,43.06
2022-11-26T10:19:37.918Z,43.19
2022-11-26T10:22:16.599Z,43.14
2022-11-26T10:24:45.400Z,43.15
2022-11-26T10:27:15.892Z,43.09
2022-11-26T10:29:46.246Z,42.94
2022-11-26T10:32:16.277Z,42.98
2022-11-26T10:34:50.634Z,42.93
2022-11-26T10:37:18.744Z,42.92
2022-11-26T10:39:47.405Z,42.77
2022-11-26T10:42:17.991Z,42.78
2022-11-26T10:44:46.218Z,42.88
2022-11-26T10:47:22.982Z,42.85
2022-11-26T10:49:51.824Z,42.92
2022-11-26T10:52:22.981Z,42.94
2022-11-26T10:55:16.398Z,42.73
2022-11-26T10:57:48.641Z,42.65
2022-11-26T11:00:34.559Z,42.59
2022-11-26T11:03:03.361Z,42.54
2022-11-26T11:05:31.125Z,42.40
2022-11-26T11:07:58.365Z,42.41
2022-11-26T11:10:26.917Z,42.65
2022-11-26T11:13:10.289Z,42.50
2022-11-26T11:15:38.445Z,42.46
2022-11-26T11:18:14.557Z,42.72
2022-11-26T11:20:43.024Z,42.47
2022-11-26T11:23:21.159Z,42.46
2022-11-26T11:25:59.139Z,42.52
2022-11-26T11:28:28.742Z,42.43
2022-11-26T11:31:15.447Z,42.48
2022-11-26T11:33:43.501Z,42.27
2022-11-26T11:36:27.135Z,42.31
2022-11-26T11:38:56.293Z,42.17
2022-11-26T11:41:30.658Z,42.11
2022-11-26T11:44:00.106Z,42.14
2022-11-26T11:47:05.019Z,42.04
2022-11-26T11:49:47.860Z,42.21
2022-11-26T11:52:26.088Z,42.09
2022-11-26T11:55:01.376Z,42.00
2022-11-26T11:57:54.393Z,42.31
2022-11-26T12:00:23.868Z,42.34
2022-11-26T12:03:29.840Z,42.26
2022-11-26T12:06:11.924Z,42.21
2022-11-26T12:08:51.642Z,42.23
2022-11-26T12:11:30.083Z,42.41
2022-11-26T12:14:03.805Z,42.42
2022-11-26T12:16:35.641Z,42.36
2022-11-26T12:19:10.535Z,42.20
2022-11-26T12:21:44.006Z,42.05
2022-11-26T12:24:19.890Z,42.01
2022-11-26T12:26:51.457Z,42.18
2022-11-26T12:29:29.589Z,42.05
2022-11-26T12:32:00.367Z,42.24
2022-11-26T12:34:31.749Z,42.17
2022-11-26T12:37:02.200Z,42.36
2022-11-26T12:39:38.687Z,42.19
2022-11-26T12:42:12.870Z,42.29
2022-11-26T12:44:42.137Z,42.34
2022-11-26T12:47:17.519Z,42.26
2022-11-26T12:49:56.432Z,42.26
2022-11-26T12:52:31.040Z,42.25
2022-11-26T12:55:10.298Z,42.42
2022-11-26T12:57:42.263Z,42.31
2022-11-26T13:00:22.345Z,42.28
2022-11-26T13:02:52.406Z,42.29
2022-11-26T13:05:25.168Z,42.44
2022-11-26T13:08:07.936Z,42.19
2022-11-26T13:10:57.168Z,42.15
2022-11-26T13:13:35.884Z,42.18
2022-11-26T13:16:14.251Z,41.84
2022-11-26T13:18:45.050Z,42.12
2022-11-26T13:21:27.577Z,42.13
2022-11-26T13:24:21.084Z,42.13
2022-11-26T13:26:58.722Z,42.03
2022-11-26T13:29:57.059Z,42.11
2022-11-26T13:32:53.977Z,42.24
2022-11-26T13:35:45.729Z,42.16
2022-11-26T13:38:20.373Z,42.27
2022-11-26T13:41:09.757Z,42.03
2022-11-26T13:44:19.083Z,42.40
2022-11-26T13:46:51.058Z,42.24
2022-11-26T13:49:25.505Z,42.26
2022-11-26T13:51:56.757Z,41.99
2022-11-26T13:54:29.484Z,41.82
2022-11-26T13:57:00.090Z,41.99
2022-11-26T13:59:30.191Z,41.87
2022-11-26T14:01:57.469Z,41.96
2022-11-26T14:04:53.594Z,42.41
2022-11-26T14:07:21.135Z,43.56
2022-11-26T14:09:54.368Z,43.19
2022-11-26T14:12:22.982Z,43.33
2022-11-26T14:14:50.700Z,43.62
2022-11-26T14:17:31.265Z,43.52
2022-11-26T14:20:09.110Z,43.40
2022-11-26T14:22:37.445Z,43.42
2022-11-26T14:25:07.611Z,43.52
2022-11-26T14:27:36.828Z,43.76
2022-11-26T14:30:18.085Z,43.58
2022-11-26T14:32:51.534Z,43.83
2022-11-26T14:35:26.951Z,43.79
2022-11-26T14:37:58.369Z,43.75
2022-11-26T14:40:27.099Z,43.40
2022-11-26T14:43:08.465Z,43.66
2022-11-26T14:45:36.132Z,43.67
2022-11-26T14:48:04.061Z,43.67
2022-11-26T14:50:35.986Z,43.54
2022-11-26T14:53:06.673Z,43.36
2022-11-26T14:55:34.718Z,43.53
2022-11-26T14:58:09.193Z,43.79
2022-11-26T15:00:37.148Z,43.53
2022-11-26T15:03:18.632Z,43.49
2022-11-26T15:05:47.159Z,43.50
2022-11-26T15:08:17.614Z,43.13
2022-11-26T15:10:49.279Z,42.84
2022-11-26T15:13:22.930Z,42.62
2022-11-26T15:15:51.107Z,42.44
2022-11-26T15:18:19.794Z,42.51
2022-11-26T15:20:52.513Z,42.35
2022-11-26T15:23:28.005Z,42.23
2022-11-26T15:25:55.486Z,42.52
2022-11-26T15:28:23.142Z,42.62
2022-11-26T15:30:55.850Z,42.61
2022-11-26T15:33:24.049Z,42.64
2022-11-26T15:35:52.953Z,42.72
2022-11-26T15:38:20.662Z,42.91
2022-11-26T15:40:50.190Z,42.66
2022-11-26T15:43:22.803Z,42.57
2022-11-26T15:45:51.141Z,42.19
2022-11-26T15:48:28.052Z,42.31
2022-11-26T15:51:13.631Z,42.43
2022-11-26T15:53:46.884Z,42.42
2022-11-26T15:56:17.457Z,42.03
2022-11-26T15:58:48.714Z,42.30
2022-11-26T16:01:18.958Z,42.04
2022-11-26T16:03:48.300Z,41.81
2022-11-26T16:06:28.101Z,41.80
2022-11-26T16:09:01.458Z,42.30
2022-11-26T16:11:29.623Z,42.42
2022-11-26T16:13:56.898Z,42.82
2022-11-26T16:16:26.072Z,42.84
2022-11-26T16:18:56.508Z,42.81
2022-11-26T16:21:28.214Z,43.18
2022-11-26T16:23:59.352Z,43.43
2022-11-26T16:26:26.621Z,43.63
2022-11-26T16:28:54.030Z,43.64
2022-11-26T16:31:21.608Z,43.95
2022-11-26T16:33:48.962Z,44.09
2022-11-26T16:36:21.682Z,44.49
2022-11-26T16:38:50.797Z,44.21
2022-11-26T16:41:19.391Z,44.54
2022-11-26T16:43:46.595Z,44.26
2022-11-26T16:46:16.950Z,43.83
2022-11-26T16:48:45.209Z,43.62
2022-11-26T16:51:12.894Z,43.47
2022-11-26T16:53:40.075Z,43.40
2022-11-26T16:58:50.907Z,43.40
2022-11-26T17:01:18.415Z,43.64
2022-11-26T17:03:45.636Z,44.02
2022-11-26T17:06:15.442Z,44.15
2022-11-26T17:08:47.897Z,44.25
2022-11-26T17:11:18.096Z,44.50
2022-11-26T17:13:45.290Z,44.42
2022-11-26T17:16:15.014Z,44.53
2022-11-26T17:18:42.567Z,44.12
2022-11-26T17:21:09.990Z,44.01
2022-11-26T17:23:37.398Z,43.81
2022-11-26T17:26:15.418Z,44.08
2022-11-26T17:28:43.938Z,43.78
2022-11-26T17:31:11.259Z,43.89
2022-11-26T17:33:38.839Z,43.80
2022-11-26T17:36:14.474Z,43.91
2022-11-26T17:38:42.009Z,44.01
2022-11-26T17:41:09.228Z,44.14
2022-11-26T17:43:36.349Z,44.21
2022-11-26T17:46:05.247Z,44.06
2022-11-26T17:48:32.401Z,44.01
2022-11-26T17:50:59.499Z,44.08
2022-11-26T17:53:26.650Z,44.20
2022-11-26T17:55:53.741Z,44.19
2022-11-26T17:58:20.835Z,44.17
2022-11-26T18:00:48.191Z,44.18
2022-11-26T18:03:16.809Z,44.15
2022-11-26T18:05:43.919Z,43.90
2022-11-26T18:08:11.065Z,43.94
2022-11-26T18:10:39.779Z,43.76
2022-11-26T18:13:07.088Z,43.71
2022-11-26T18:15:34.318Z,43.80
2022-11-26T18:18:01.508Z,43.85
2022-11-26T18:20:30.002Z,44.20
2022-11-26T18:22:59.628Z,43.75
2022-11-26T18:25:27.616Z,43.68
2022-11-26T18:27:55.161Z,43.78
2022-11-26T18:30:22.465Z,43.52
2022-11-26T18:32:49.574Z,43.33
2022-11-26T18:35:17.022Z,43.35
2022-11-26T18:37:45.535Z,43.36
2022-11-26T18:40:15.533Z,43.49
2022-11-26T18:42:42.992Z,43.65
2022-11-26T18:45:13.225Z,43.79
2022-11-26T18:47:40.365Z,43.64
2022-11-26T18:50:08.444Z,43.35
2022-11-26T18:52:35.619Z,43.35
2022-11-26T18:55:04.574Z,43.39
2022-11-26T18:57:32.209Z,43.37
2022-11-26T18:59:59.329Z,43.81
2022-11-26T19:02:26.499Z,44.11
2022-11-26T19:04:53.691Z,43.46
2022-11-26T19:07:20.923Z,43.26
2022-11-26T19:09:48.252Z,43.08
2022-11-26T19:12:16.828Z,43.03
2022-11-26T19:14:43.960Z,43.06
2022-11-26T19:17:11.167Z,42.83
2022-11-26T19:19:38.757Z,42.75
2022-11-26T19:22:06.317Z,42.59
2022-11-26T19:24:33.485Z,42.75
2022-11-26T19:27:00.573Z,42.61
2022-11-26T19:29:29.055Z,42.68
2022-11-26T19:31:56.163Z,42.77
2022-11-26T19:34:23.309Z,42.70
2022-11-26T19:36:50.423Z,42.70
2022-11-26T19:39:17.555Z,42.77
2022-11-26T19:41:44.650Z,42.88
2022-11-26T19:44:11.862Z,42.79
2022-11-26T19:46:40.345Z,43.02
2022-11-26T19:49:09.296Z,42.74
2022-11-26T19:51:36.441Z,42.76
2022-11-26T19:54:03.776Z,42.70
2022-11-26T19:56:31.497Z,42.53
2022-11-26T19:58:59.487Z,42.30
2022-11-26T20:01:27.745Z,42.29
2022-11-26T20:03:57.310Z,41.84
2022-11-26T20:06:26.570Z,42.18
2022-11-26T20:08:54.641Z,42.21
2022-11-26T20:11:22.073Z,42.37
2022-11-26T20:13:50.047Z,42.20
2022-11-26T20:16:19.856Z,42.14
2022-11-26T20:18:47.763Z,42.23
2022-11-26T20:21:19.051Z,42.62
2022-11-26T20:23:47.000Z,42.35
2022-11-26T20:26:17.159Z,42.32
2022-11-26T20:28:44.642Z,42.68
2022-11-26T20:31:13.385Z,42.53
2022-11-26T20:33:41.020Z,42.57
2022-11-26T20:36:10.278Z,42.77
2022-11-26T20:38:39.054Z,42.75
2022-11-26T20:41:08.752Z,42.64
2022-11-26T20:43:36.468Z,42.49
2022-11-26T20:46:05.939Z,42.56
2022-11-26T20:48:34.892Z,42.29
2022-11-26T20:51:03.426Z,42.11
2022-11-26T20:53:30.864Z,42.07
2022-11-26T20:55:59.445Z,42.16
2022-11-26T20:58:27.409Z,41.94
2022-11-26T21:00:55.716Z,42.35
2022-11-26T21:03:23.986Z,42.37
2022-11-26T21:05:51.731Z,42.12
2022-11-26T21:08:19.586Z,42.29
2022-11-26T21:10:46.706Z,42.22
2022-11-26T21:13:17.098Z,42.02
2022-11-26T21:15:45.607Z,42.09
2022-11-26T21:18:12.884Z,42.42
2022-11-26T21:20:40.666Z,42.45
2022-11-26T21:23:08.419Z,42.42
2022-11-26T21:25:36.591Z,42.43
2022-11-26T21:28:04.110Z,42.45
2022-11-26T21:30:32.789Z,42.52
2022-11-26T21:33:01.348Z,42.12
2022-11-26T21:35:32.311Z,41.98
2022-11-26T21:38:00.266Z,41.91
2022-11-26T21:40:28.015Z,41.82
2022-11-26T21:42:55.240Z,41.74
2022-11-26T21:45:23.102Z,41.78
2022-11-26T21:47:52.004Z,41.89
2022-11-26T21:50:19.677Z,41.79
2022-11-26T21:52:46.818Z,41.99
2022-11-26T21:55:14.016Z,41.93
2022-11-26T21:57:41.152Z,42.08
2022-11-26T22:00:09.522Z,41.90
2022-11-26T22:02:36.762Z,42.71
2022-11-26T22:05:05.748Z,43.13
2022-11-26T22:07:33.091Z,42.74
2022-11-26T22:10:00.340Z,42.87
2022-11-26T22:12:27.601Z,42.90
2022-11-26T22:14:54.766Z,42.90
2022-11-26T22:17:21.868Z,43.01
2022-11-26T22:19:48.974Z,43.15
2022-11-26T22:22:17.441Z,43.14
2022-11-26T22:24:44.580Z,43.19
2022-11-26T22:27:11.744Z,42.89
2022-11-26T22:29:40.372Z,42.97
2022-11-26T22:32:07.633Z,42.97
2022-11-26T22:34:34.809Z,42.81
2022-11-26T22:37:01.919Z,43.09
2022-11-26T22:39:30.491Z,43.25
2022-11-26T22:41:57.821Z,43.10
2022-11-26T22:44:25.042Z,43.43
2022-11-26T22:46:52.200Z,43.67
2022-11-26T22:49:19.354Z,43.44
2022-11-26T22:51:46.450Z,43.41
2022-11-26T22:54:15.549Z,43.38
2022-11-26T22:56:44.340Z,43.25
2022-11-26T22:59:13.866Z,43.29
2022-11-26T23:01:41.416Z,43.51
2022-11-26T23:04:10.110Z,43.59
2022-11-26T23:06:38.394Z,43.49
2022-11-26T23:09:07.269Z,43.38
2022-11-26T23:11:37.167Z,43.38
2022-11-26T23:14:06.059Z,43.22
2022-11-26T23:16:34.298Z,43.11
2022-11-26T23:19:02.653Z,43.21
2022-11-26T23:21:31.493Z,43.14
2022-11-26T23:23:58.709Z,43.10
2022-11-26T23:26:28.095Z,43.06
2022-11-26T23:28:55.995Z,42.88
2022-11-26T23:31:26.649Z,43.11
2022-11-26T23:33:54.420Z,43.08
2022-11-26T23:36:22.188Z,43.13
2022-11-26T23:38:49.313Z,43.27
2022-11-26T23:41:16.593Z,43.22
2022-11-26T23:43:44.686Z,43.03
2022-11-26T23:46:15.028Z,43.25
2022-11-26T23:48:44.864Z,43.13
2022-11-26T23:51:14.261Z,43.32
2022-11-26T23:53:43.667Z,43.16
2022-11-26T23:56:13.684Z,43.17
2022-11-26T23:58:40.791Z,43.25
